sensor_id;sensor_type;location;lat;lon;timestamp;P1;durP1;ratioP1;P2;durP2;ratioP2
68803;SDS011;55787;52.678;13.314;2022-07-18T00:01:57;8.02;;;1.85;;
68803;SDS011;55787;52.678;13.314;2022-07-18T00:04:25;6.85;;;1.73;;
68803;SDS011;55787;52.678;13.314;2022-07-18T00:06:52;7.35;;;2.05;;
68803;SDS011;55787;52.678;13.314;2022-07-18T00:09:19;7.65;;;1.80;;
68803;SDS011;55787;52.678;13.314;2022-07-18T00:11:48;6.90;;;1.80;;
68803;SDS011;55787;52.678;13.314;2022-07-18T00:14:16;6.30;;;1.88;;
68803;SDS011;55787;52.678;13.314;2022-07-18T00:16:43;6.43;;;1.70;;
68803;SDS011;55787;52.678;13.314;2022-07-18T00:19:09;7.07;;;1.70;;
68803;SDS011;55787;52.678;13.314;2022-07-18T00:21:36;6.57;;;1.77;;
68803;SDS011;55787;52.678;13.314;2022-07-18T00:24:02;7.18;;;1.50;;
68803;SDS011;55787;52.678;13.314;2022-07-18T00:26:29;6.30;;;1.73;;
68803;SDS011;55787;52.678;13.314;2022-07-18T00:28:55;6.35;;;1.80;;
68803;SDS011;55787;52.678;13.314;2022-07-18T00:31:22;8.15;;;1.90;;
68803;SDS011;55787;52.678;13.314;2022-07-18T00:33:49;7.53;;;1.67;;
68803;SDS011;55787;52.678;13.314;2022-07-18T00:36:15;8.18;;;1.98;;
68803;SDS011;55787;52.678;13.314;2022-07-18T00:38:42;6.72;;;1.75;;
68803;SDS011;55787;52.678;13.314;2022-07-18T00:41:08;7.55;;;2.10;;
68803;SDS011;55787;52.678;13.314;2022-07-18T00:43:35;6.50;;;1.80;;
68803;SDS011;55787;52.678;13.314;2022-07-18T00:46:01;6.67;;;2.00;;
68803;SDS011;55787;52.678;13.314;2022-07-18T00:48:28;7.90;;;2.28;;
68803;SDS011;55787;52.678;13.314;2022-07-18T00:50:54;7.97;;;1.83;;
68803;SDS011;55787;52.678;13.314;2022-07-18T00:53:20;7.45;;;1.90;;
68803;SDS011;55787;52.678;13.314;2022-07-18T00:55:49;8.80;;;1.90;;
68803;SDS011;55787;52.678;13.314;2022-07-18T00:58:18;7.53;;;2.03;;
68803;SDS011;55787;52.678;13.314;2022-07-18T01:00:44;9.52;;;2.10;;
68803;SDS011;55787;52.678;13.314;2022-07-18T01:03:29;8.82;;;2.20;;
68803;SDS011;55787;52.678;13.314;2022-07-18T01:05:56;8.88;;;2.25;;
68803;SDS011;55787;52.678;13.314;2022-07-18T01:08:22;8.00;;;2.45;;
68803;SDS011;55787;52.678;13.314;2022-07-18T01:10:49;7.30;;;2.30;;
68803;SDS011;55787;52.678;13.314;2022-07-18T01:13:17;8.68;;;2.42;;
68803;SDS011;55787;52.678;13.314;2022-07-18T01:15:44;6.78;;;2.08;;
68803;SDS011;55787;52.678;13.314;2022-07-18T01:18:10;8.15;;;2.40;;
68803;SDS011;55787;52.678;13.314;2022-07-18T01:20:37;8.10;;;2.50;;
68803;SDS011;55787;52.678;13.314;2022-07-18T01:23:04;7.97;;;2.60;;
68803;SDS011;55787;52.678;13.314;2022-07-18T01:25:31;7.13;;;2.20;;
68803;SDS011;55787;52.678;13.314;2022-07-18T01:27:58;9.73;;;2.50;;
68803;SDS011;55787;52.678;13.314;2022-07-18T01:30:24;8.70;;;2.60;;
68803;SDS011;55787;52.678;13.314;2022-07-18T01:32:54;8.80;;;2.63;;
68803;SDS011;55787;52.678;13.314;2022-07-18T01:35:22;8.10;;;2.33;;
68803;SDS011;55787;52.678;13.314;2022-07-18T01:37:51;8.68;;;2.30;;
68803;SDS011;55787;52.678;13.314;2022-07-18T01:40:18;7.75;;;2.30;;
68803;SDS011;55787;52.678;13.314;2022-07-18T01:42:45;8.38;;;2.83;;
68803;SDS011;55787;52.678;13.314;2022-07-18T01:45:12;9.20;;;2.50;;
68803;SDS011;55787;52.678;13.314;2022-07-18T01:47:39;8.27;;;2.50;;
68803;SDS011;55787;52.678;13.314;2022-07-18T01:50:05;7.03;;;2.60;;
68803;SDS011;55787;52.678;13.314;2022-07-18T01:52:32;7.68;;;2.60;;
68803;SDS011;55787;52.678;13.314;2022-07-18T01:54:59;9.27;;;2.70;;
68803;SDS011;55787;52.678;13.314;2022-07-18T01:57:25;8.43;;;2.50;;
68803;SDS011;55787;52.678;13.314;2022-07-18T01:59:52;8.23;;;2.50;;
68803;SDS011;55787;52.678;13.314;2022-07-18T02:02:18;8.70;;;2.40;;
68803;SDS011;55787;52.678;13.314;2022-07-18T02:04:45;7.80;;;2.83;;
68803;SDS011;55787;52.678;13.314;2022-07-18T02:07:28;7.82;;;2.72;;
68803;SDS011;55787;52.678;13.314;2022-07-18T02:09:56;7.97;;;2.72;;
68803;SDS011;55787;52.678;13.314;2022-07-18T02:12:23;7.72;;;2.65;;
68803;SDS011;55787;52.678;13.314;2022-07-18T02:14:50;8.98;;;2.63;;
68803;SDS011;55787;52.678;13.314;2022-07-18T02:17:16;8.23;;;2.70;;
68803;SDS011;55787;52.678;13.314;2022-07-18T02:19:45;8.98;;;2.53;;
68803;SDS011;55787;52.678;13.314;2022-07-18T02:22:12;13.32;;;2.92;;
68803;SDS011;55787;52.678;13.314;2022-07-18T02:24:39;7.50;;;2.40;;
68803;SDS011;55787;52.678;13.314;2022-07-18T02:27:06;7.10;;;2.60;;
68803;SDS011;55787;52.678;13.314;2022-07-18T02:29:33;8.95;;;2.75;;
68803;SDS011;55787;52.678;13.314;2022-07-18T02:31:59;7.18;;;2.47;;
68803;SDS011;55787;52.678;13.314;2022-07-18T02:34:26;8.73;;;2.85;;
68803;SDS011;55787;52.678;13.314;2022-07-18T02:36:52;9.48;;;2.83;;
68803;SDS011;55787;52.678;13.314;2022-07-18T02:39:19;8.65;;;2.92;;
68803;SDS011;55787;52.678;13.314;2022-07-18T02:41:46;7.30;;;2.75;;
68803;SDS011;55787;52.678;13.314;2022-07-18T02:44:12;7.22;;;2.38;;
68803;SDS011;55787;52.678;13.314;2022-07-18T02:46:39;8.00;;;2.58;;
68803;SDS011;55787;52.678;13.314;2022-07-18T02:49:06;8.13;;;2.63;;
68803;SDS011;55787;52.678;13.314;2022-07-18T02:51:33;7.95;;;2.60;;
68803;SDS011;55787;52.678;13.314;2022-07-18T02:53:59;8.50;;;2.75;;
68803;SDS011;55787;52.678;13.314;2022-07-18T02:56:26;7.68;;;2.47;;
68803;SDS011;55787;52.678;13.314;2022-07-18T02:58:52;13.00;;;2.75;;
68803;SDS011;55787;52.678;13.314;2022-07-18T03:01:19;7.00;;;2.70;;
68803;SDS011;55787;52.678;13.314;2022-07-18T03:03:45;7.78;;;2.45;;
68803;SDS011;55787;52.678;13.314;2022-07-18T03:06:12;9.27;;;2.85;;
68803;SDS011;55787;52.678;13.314;2022-07-18T03:08:38;8.60;;;2.45;;
68803;SDS011;55787;52.678;13.314;2022-07-18T03:11:05;8.52;;;2.80;;
68803;SDS011;55787;52.678;13.314;2022-07-18T03:13:31;9.40;;;2.65;;
68803;SDS011;55787;52.678;13.314;2022-07-18T03:15:58;9.52;;;2.70;;
68803;SDS011;55787;52.678;13.314;2022-07-18T03:18:25;7.57;;;2.67;;
68803;SDS011;55787;52.678;13.314;2022-07-18T03:20:52;9.50;;;2.70;;
68803;SDS011;55787;52.678;13.314;2022-07-18T03:23:18;9.45;;;3.20;;
68803;SDS011;55787;52.678;13.314;2022-07-18T03:25:45;8.33;;;2.80;;
68803;SDS011;55787;52.678;13.314;2022-07-18T03:28:11;8.20;;;2.83;;
68803;SDS011;55787;52.678;13.314;2022-07-18T03:30:38;8.73;;;3.53;;
68803;SDS011;55787;52.678;13.314;2022-07-18T03:33:04;8.45;;;2.83;;
68803;SDS011;55787;52.678;13.314;2022-07-18T03:35:32;8.10;;;3.10;;
68803;SDS011;55787;52.678;13.314;2022-07-18T03:37:58;8.52;;;2.35;;
68803;SDS011;55787;52.678;13.314;2022-07-18T03:40:25;9.07;;;2.55;;
68803;SDS011;55787;52.678;13.314;2022-07-18T03:42:51;8.85;;;2.90;;
68803;SDS011;55787;52.678;13.314;2022-07-18T03:45:18;8.98;;;3.20;;
68803;SDS011;55787;52.678;13.314;2022-07-18T03:47:45;13.60;;;3.08;;
68803;SDS011;55787;52.678;13.314;2022-07-18T03:50:11;9.52;;;2.95;;
68803;SDS011;55787;52.678;13.314;2022-07-18T03:52:38;9.65;;;3.00;;
68803;SDS011;55787;52.678;13.314;2022-07-18T03:55:04;8.80;;;2.80;;
68803;SDS011;55787;52.678;13.314;2022-07-18T03:57:31;9.00;;;3.00;;
68803;SDS011;55787;52.678;13.314;2022-07-18T03:59:58;9.23;;;3.10;;
68803;SDS011;55787;52.678;13.314;2022-07-18T04:02:24;8.93;;;3.10;;
68803;SDS011;55787;52.678;13.314;2022-07-18T04:04:51;8.93;;;3.10;;
68803;SDS011;55787;52.678;13.314;2022-07-18T04:07:17;8.95;;;2.90;;
68803;SDS011;55787;52.678;13.314;2022-07-18T04:09:44;9.20;;;3.08;;
68803;SDS011;55787;52.678;13.314;2022-07-18T04:12:11;8.00;;;2.60;;
68803;SDS011;55787;52.678;13.314;2022-07-18T04:14:37;8.02;;;2.70;;
68803;SDS011;55787;52.678;13.314;2022-07-18T04:17:04;9.05;;;3.33;;
68803;SDS011;55787;52.678;13.314;2022-07-18T04:19:30;10.43;;;3.15;;
68803;SDS011;55787;52.678;13.314;2022-07-18T04:21:56;9.75;;;3.10;;
68803;SDS011;55787;52.678;13.314;2022-07-18T04:24:23;8.43;;;2.70;;
68803;SDS011;55787;52.678;13.314;2022-07-18T04:26:50;8.52;;;2.85;;
68803;SDS011;55787;52.678;13.314;2022-07-18T04:29:16;10.82;;;3.28;;
68803;SDS011;55787;52.678;13.314;2022-07-18T04:31:43;8.88;;;2.85;;
68803;SDS011;55787;52.678;13.314;2022-07-18T04:34:10;8.50;;;2.90;;
68803;SDS011;55787;52.678;13.314;2022-07-18T04:36:36;10.10;;;3.10;;
68803;SDS011;55787;52.678;13.314;2022-07-18T04:39:03;9.15;;;3.45;;
68803;SDS011;55787;52.678;13.314;2022-07-18T04:41:29;10.20;;;3.08;;
68803;SDS011;55787;52.678;13.314;2022-07-18T04:44:01;7.75;;;2.90;;
68803;SDS011;55787;52.678;13.314;2022-07-18T04:46:27;8.20;;;3.00;;
68803;SDS011;55787;52.678;13.314;2022-07-18T04:48:54;8.02;;;2.70;;
68803;SDS011;55787;52.678;13.314;2022-07-18T04:51:20;9.27;;;3.27;;
68803;SDS011;55787;52.678;13.314;2022-07-18T04:53:47;10.35;;;3.10;;
68803;SDS011;55787;52.678;13.314;2022-07-18T04:56:14;8.95;;;2.97;;
68803;SDS011;55787;52.678;13.314;2022-07-18T04:58:41;9.60;;;3.10;;
68803;SDS011;55787;52.678;13.314;2022-07-18T05:01:08;8.63;;;3.20;;
68803;SDS011;55787;52.678;13.314;2022-07-18T05:03:35;8.87;;;2.77;;
68803;SDS011;55787;52.678;13.314;2022-07-18T05:06:01;9.48;;;3.08;;
68803;SDS011;55787;52.678;13.314;2022-07-18T05:08:28;8.32;;;2.95;;
68803;SDS011;55787;52.678;13.314;2022-07-18T05:10:54;7.45;;;2.80;;
68803;SDS011;55787;52.678;13.314;2022-07-18T05:13:21;9.07;;;2.95;;
68803;SDS011;55787;52.678;13.314;2022-07-18T05:15:48;9.43;;;3.57;;
68803;SDS011;55787;52.678;13.314;2022-07-18T05:18:14;7.45;;;2.80;;
68803;SDS011;55787;52.678;13.314;2022-07-18T05:20:41;9.02;;;2.90;;
68803;SDS011;55787;52.678;13.314;2022-07-18T05:23:09;8.27;;;2.40;;
68803;SDS011;55787;52.678;13.314;2022-07-18T05:25:36;7.13;;;2.45;;
68803;SDS011;55787;52.678;13.314;2022-07-18T05:28:02;9.70;;;4.37;;
68803;SDS011;55787;52.678;13.314;2022-07-18T05:30:29;9.52;;;3.05;;
68803;SDS011;55787;52.678;13.314;2022-07-18T05:32:55;8.70;;;2.55;;
68803;SDS011;55787;52.678;13.314;2022-07-18T05:35:22;9.20;;;2.50;;
68803;SDS011;55787;52.678;13.314;2022-07-18T05:37:49;9.73;;;2.78;;
68803;SDS011;55787;52.678;13.314;2022-07-18T05:40:15;9.10;;;2.83;;
68803;SDS011;55787;52.678;13.314;2022-07-18T05:42:42;7.20;;;2.30;;
68803;SDS011;55787;52.678;13.314;2022-07-18T05:45:19;9.25;;;2.30;;
68803;SDS011;55787;52.678;13.314;2022-07-18T05:47:45;10.60;;;2.35;;
68803;SDS011;55787;52.678;13.314;2022-07-18T05:50:12;7.90;;;2.30;;
68803;SDS011;55787;52.678;13.314;2022-07-18T05:52:38;13.40;;;2.37;;
68803;SDS011;55787;52.678;13.314;2022-07-18T05:55:05;8.77;;;2.22;;
68803;SDS011;55787;52.678;13.314;2022-07-18T05:57:33;6.93;;;2.10;;
68803;SDS011;55787;52.678;13.314;2022-07-18T06:00:02;7.68;;;2.08;;
68803;SDS011;55787;52.678;13.314;2022-07-18T06:02:30;7.90;;;2.00;;
68803;SDS011;55787;52.678;13.314;2022-07-18T06:04:57;9.60;;;1.90;;
68803;SDS011;55787;52.678;13.314;2022-07-18T06:07:43;8.55;;;2.13;;
68803;SDS011;55787;52.678;13.314;2022-07-18T06:10:10;8.15;;;1.90;;
68803;SDS011;55787;52.678;13.314;2022-07-18T06:12:37;6.65;;;1.70;;
68803;SDS011;55787;52.678;13.314;2022-07-18T06:15:04;7.50;;;1.90;;
68803;SDS011;55787;52.678;13.314;2022-07-18T06:17:31;6.57;;;1.80;;
68803;SDS011;55787;52.678;13.314;2022-07-18T06:19:58;9.13;;;2.13;;
68803;SDS011;55787;52.678;13.314;2022-07-18T06:22:24;8.52;;;2.40;;
68803;SDS011;55787;52.678;13.314;2022-07-18T06:24:52;7.75;;;2.20;;
68803;SDS011;55787;52.678;13.314;2022-07-18T06:27:19;7.07;;;2.25;;
68803;SDS011;55787;52.678;13.314;2022-07-18T06:29:45;6.53;;;2.33;;
68803;SDS011;55787;52.678;13.314;2022-07-18T06:32:11;6.20;;;1.90;;
68803;SDS011;55787;52.678;13.314;2022-07-18T06:34:38;7.53;;;2.25;;
68803;SDS011;55787;52.678;13.314;2022-07-18T06:37:04;7.15;;;2.33;;
68803;SDS011;55787;52.678;13.314;2022-07-18T06:39:31;6.35;;;1.83;;
68803;SDS011;55787;52.678;13.314;2022-07-18T06:41:57;6.53;;;2.40;;
68803;SDS011;55787;52.678;13.314;2022-07-18T06:44:24;7.03;;;2.70;;
68803;SDS011;55787;52.678;13.314;2022-07-18T06:46:50;7.03;;;2.40;;
68803;SDS011;55787;52.678;13.314;2022-07-18T06:49:18;7.50;;;2.63;;
68803;SDS011;55787;52.678;13.314;2022-07-18T06:51:45;5.88;;;2.05;;
68803;SDS011;55787;52.678;13.314;2022-07-18T06:54:12;7.77;;;2.50;;
68803;SDS011;55787;52.678;13.314;2022-07-18T06:56:38;6.90;;;2.30;;
68803;SDS011;55787;52.678;13.314;2022-07-18T06:59:05;6.40;;;2.20;;
68803;SDS011;55787;52.678;13.314;2022-07-18T07:01:31;7.75;;;2.28;;
68803;SDS011;55787;52.678;13.314;2022-07-18T07:03:58;6.60;;;2.10;;
68803;SDS011;55787;52.678;13.314;2022-07-18T07:06:25;6.50;;;2.40;;
68803;SDS011;55787;52.678;13.314;2022-07-18T07:08:51;7.18;;;2.50;;
68803;SDS011;55787;52.678;13.314;2022-07-18T07:11:18;7.05;;;2.40;;
68803;SDS011;55787;52.678;13.314;2022-07-18T07:13:44;6.75;;;2.30;;
68803;SDS011;55787;52.678;13.314;2022-07-18T07:16:11;8.65;;;2.75;;
68803;SDS011;55787;52.678;13.314;2022-07-18T07:18:38;7.33;;;2.70;;
68803;SDS011;55787;52.678;13.314;2022-07-18T07:21:05;7.95;;;2.00;;
68803;SDS011;55787;52.678;13.314;2022-07-18T07:23:32;7.75;;;2.83;;
68803;SDS011;55787;52.678;13.314;2022-07-18T07:25:59;6.72;;;2.72;;
68803;SDS011;55787;52.678;13.314;2022-07-18T07:28:26;6.13;;;2.17;;
68803;SDS011;55787;52.678;13.314;2022-07-18T07:30:52;7.40;;;3.08;;
68803;SDS011;55787;52.678;13.314;2022-07-18T07:33:18;6.95;;;2.45;;
68803;SDS011;55787;52.678;13.314;2022-07-18T07:35:45;7.93;;;3.00;;
68803;SDS011;55787;52.678;13.314;2022-07-18T07:38:12;6.93;;;2.40;;
68803;SDS011;55787;52.678;13.314;2022-07-18T07:40:44;7.78;;;2.58;;
68803;SDS011;55787;52.678;13.314;2022-07-18T07:43:13;6.47;;;2.53;;
68803;SDS011;55787;52.678;13.314;2022-07-18T07:45:41;7.35;;;2.85;;
68803;SDS011;55787;52.678;13.314;2022-07-18T07:48:09;6.25;;;2.47;;
68803;SDS011;55787;52.678;13.314;2022-07-18T07:50:35;7.28;;;2.58;;
68803;SDS011;55787;52.678;13.314;2022-07-18T07:53:02;6.53;;;2.83;;
68803;SDS011;55787;52.678;13.314;2022-07-18T07:55:29;6.53;;;2.50;;
68803;SDS011;55787;52.678;13.314;2022-07-18T07:57:55;6.75;;;2.47;;
68803;SDS011;55787;52.678;13.314;2022-07-18T08:00:22;6.70;;;2.42;;
68803;SDS011;55787;52.678;13.314;2022-07-18T08:05:26;7.22;;;2.10;;
68803;SDS011;55787;52.678;13.314;2022-07-18T08:07:54;6.50;;;2.05;;
68803;SDS011;55787;52.678;13.314;2022-07-18T08:10:22;7.18;;;2.55;;
68803;SDS011;55787;52.678;13.314;2022-07-18T08:12:48;7.57;;;2.50;;
68803;SDS011;55787;52.678;13.314;2022-07-18T08:15:15;7.85;;;2.83;;
68803;SDS011;55787;52.678;13.314;2022-07-18T08:17:42;9.07;;;3.00;;
68803;SDS011;55787;52.678;13.314;2022-07-18T08:20:13;6.93;;;2.33;;
68803;SDS011;55787;52.678;13.314;2022-07-18T08:23:02;6.97;;;2.35;;
68803;SDS011;55787;52.678;13.314;2022-07-18T08:25:35;6.68;;;2.50;;
68803;SDS011;55787;52.678;13.314;2022-07-18T08:28:03;8.07;;;2.40;;
68803;SDS011;55787;52.678;13.314;2022-07-18T08:30:31;6.20;;;2.50;;
68803;SDS011;55787;52.678;13.314;2022-07-18T08:32:58;8.27;;;2.60;;
68803;SDS011;55787;52.678;13.314;2022-07-18T08:35:27;6.28;;;2.20;;
68803;SDS011;55787;52.678;13.314;2022-07-18T08:37:54;7.32;;;2.50;;
68803;SDS011;55787;52.678;13.314;2022-07-18T08:40:21;7.18;;;2.75;;
68803;SDS011;55787;52.678;13.314;2022-07-18T08:42:51;8.13;;;3.20;;
68803;SDS011;55787;52.678;13.314;2022-07-18T08:45:39;6.83;;;2.63;;
68803;SDS011;55787;52.678;13.314;2022-07-18T08:48:09;7.78;;;3.97;;
68803;SDS011;55787;52.678;13.314;2022-07-18T08:50:35;6.85;;;3.15;;
68803;SDS011;55787;52.678;13.314;2022-07-18T08:53:02;7.72;;;3.88;;
68803;SDS011;55787;52.678;13.314;2022-07-18T08:55:29;7.38;;;3.67;;
68803;SDS011;55787;52.678;13.314;2022-07-18T08:57:55;6.90;;;3.72;;
68803;SDS011;55787;52.678;13.314;2022-07-18T09:00:22;8.38;;;3.40;;
68803;SDS011;55787;52.678;13.314;2022-07-18T09:02:56;11.57;;;4.13;;
68803;SDS011;55787;52.678;13.314;2022-07-18T09:05:24;8.38;;;3.20;;
68803;SDS011;55787;52.678;13.314;2022-07-18T09:10:50;7.63;;;3.60;;
68803;SDS011;55787;52.678;13.314;2022-07-18T09:13:21;7.80;;;3.15;;
68803;SDS011;55787;52.678;13.314;2022-07-18T09:18:30;6.88;;;3.38;;
68803;SDS011;55787;52.678;13.314;2022-07-18T09:21:06;7.30;;;3.60;;
68803;SDS011;55787;52.678;13.314;2022-07-18T09:23:34;8.23;;;3.13;;
68803;SDS011;55787;52.678;13.314;2022-07-18T09:26:02;7.80;;;3.55;;
68803;SDS011;55787;52.678;13.314;2022-07-18T09:28:30;7.20;;;2.88;;
68803;SDS011;55787;52.678;13.314;2022-07-18T09:31:32;7.50;;;2.70;;
68803;SDS011;55787;52.678;13.314;2022-07-18T09:34:01;8.15;;;3.10;;
68803;SDS011;55787;52.678;13.314;2022-07-18T09:36:28;7.35;;;2.58;;
68803;SDS011;55787;52.678;13.314;2022-07-18T09:38:56;7.68;;;2.70;;
68803;SDS011;55787;52.678;13.314;2022-07-18T09:41:23;7.10;;;2.85;;
68803;SDS011;55787;52.678;13.314;2022-07-18T09:43:52;6.97;;;2.75;;
68803;SDS011;55787;52.678;13.314;2022-07-18T09:46:18;7.55;;;2.92;;
68803;SDS011;55787;52.678;13.314;2022-07-18T09:48:45;7.78;;;3.30;;
68803;SDS011;55787;52.678;13.314;2022-07-18T09:51:12;8.38;;;3.17;;
68803;SDS011;55787;52.678;13.314;2022-07-18T09:56:10;8.27;;;3.10;;
68803;SDS011;55787;52.678;13.314;2022-07-18T09:58:39;8.00;;;2.90;;
68803;SDS011;55787;52.678;13.314;2022-07-18T10:01:08;7.93;;;2.90;;
68803;SDS011;55787;52.678;13.314;2022-07-18T10:03:36;8.15;;;3.10;;
68803;SDS011;55787;52.678;13.314;2022-07-18T10:06:03;6.85;;;2.80;;
68803;SDS011;55787;52.678;13.314;2022-07-18T10:08:30;8.40;;;2.90;;
68803;SDS011;55787;52.678;13.314;2022-07-18T10:10:58;7.45;;;2.60;;
68803;SDS011;55787;52.678;13.314;2022-07-18T10:13:27;7.38;;;3.00;;
68803;SDS011;55787;52.678;13.314;2022-07-18T10:15:55;6.95;;;2.55;;
68803;SDS011;55787;52.678;13.314;2022-07-18T10:18:23;6.53;;;2.60;;
68803;SDS011;55787;52.678;13.314;2022-07-18T10:23:25;6.68;;;2.90;;
68803;SDS011;55787;52.678;13.314;2022-07-18T10:26:08;6.47;;;2.50;;
68803;SDS011;55787;52.678;13.314;2022-07-18T10:31:31;8.02;;;2.40;;
68803;SDS011;55787;52.678;13.314;2022-07-18T10:39:15;6.35;;;2.35;;
68803;SDS011;55787;52.678;13.314;2022-07-18T10:47:05;6.68;;;2.70;;
68803;SDS011;55787;52.678;13.314;2022-07-18T11:18:23;8.05;;;3.08;;
68803;SDS011;55787;52.678;13.314;2022-07-18T11:20:49;6.43;;;3.13;;
68803;SDS011;55787;52.678;13.314;2022-07-18T11:23:20;7.15;;;3.28;;
68803;SDS011;55787;52.678;13.314;2022-07-18T11:25:53;7.97;;;3.08;;
68803;SDS011;55787;52.678;13.314;2022-07-18T11:28:25;7.60;;;3.60;;
68803;SDS011;55787;52.678;13.314;2022-07-18T11:31:11;7.38;;;3.33;;
68803;SDS011;55787;52.678;13.314;2022-07-18T11:33:40;7.35;;;3.30;;
68803;SDS011;55787;52.678;13.314;2022-07-18T11:36:11;11.18;;;3.63;;
68803;SDS011;55787;52.678;13.314;2022-07-18T11:38:45;8.55;;;3.05;;
68803;SDS011;55787;52.678;13.314;2022-07-18T11:41:14;7.68;;;3.30;;
68803;SDS011;55787;52.678;13.314;2022-07-18T11:43:43;6.65;;;3.63;;
68803;SDS011;55787;52.678;13.314;2022-07-18T11:46:11;6.40;;;3.08;;
68803;SDS011;55787;52.678;13.314;2022-07-18T11:48:48;6.97;;;3.20;;
68803;SDS011;55787;52.678;13.314;2022-07-18T11:51:23;7.55;;;3.60;;
68803;SDS011;55787;52.678;13.314;2022-07-18T11:53:51;9.65;;;3.30;;
68803;SDS011;55787;52.678;13.314;2022-07-18T11:56:18;7.22;;;3.15;;
68803;SDS011;55787;52.678;13.314;2022-07-18T11:58:47;7.43;;;3.40;;
68803;SDS011;55787;52.678;13.314;2022-07-18T12:01:15;6.85;;;3.20;;
68803;SDS011;55787;52.678;13.314;2022-07-18T12:03:46;7.70;;;2.83;;
68803;SDS011;55787;52.678;13.314;2022-07-18T12:06:15;7.05;;;2.80;;
68803;SDS011;55787;52.678;13.314;2022-07-18T12:08:51;7.45;;;2.85;;
68803;SDS011;55787;52.678;13.314;2022-07-18T12:11:25;6.72;;;2.60;;
68803;SDS011;55787;52.678;13.314;2022-07-18T12:16:35;9.45;;;2.90;;
68803;SDS011;55787;52.678;13.314;2022-07-18T12:19:10;7.15;;;2.70;;
68803;SDS011;55787;52.678;13.314;2022-07-18T12:21:49;6.30;;;2.53;;
68803;SDS011;55787;52.678;13.314;2022-07-18T12:24:20;6.57;;;2.40;;
68803;SDS011;55787;52.678;13.314;2022-07-18T12:27:06;7.45;;;2.50;;
68803;SDS011;55787;52.678;13.314;2022-07-18T12:35:29;6.72;;;2.20;;
68803;SDS011;55787;52.678;13.314;2022-07-18T12:46:05;7.85;;;2.50;;
68803;SDS011;55787;52.678;13.314;2022-07-18T12:48:34;6.68;;;2.67;;
68803;SDS011;55787;52.678;13.314;2022-07-18T12:51:02;6.55;;;2.53;;
68803;SDS011;55787;52.678;13.314;2022-07-18T12:53:32;7.78;;;2.42;;
68803;SDS011;55787;52.678;13.314;2022-07-18T12:56:00;6.43;;;2.38;;
68803;SDS011;55787;52.678;13.314;2022-07-18T12:58:27;8.57;;;2.65;;
68803;SDS011;55787;52.678;13.314;2022-07-18T13:00:53;8.00;;;2.40;;
68803;SDS011;55787;52.678;13.314;2022-07-18T13:03:31;8.07;;;2.60;;
68803;SDS011;55787;52.678;13.314;2022-07-18T13:05:58;6.55;;;2.30;;
68803;SDS011;55787;52.678;13.314;2022-07-18T13:08:24;6.53;;;2.50;;
68803;SDS011;55787;52.678;13.314;2022-07-18T13:10:53;8.15;;;2.50;;
68803;SDS011;55787;52.678;13.314;2022-07-18T13:13:20;6.90;;;2.42;;
68803;SDS011;55787;52.678;13.314;2022-07-18T13:15:47;7.43;;;2.50;;
68803;SDS011;55787;52.678;13.314;2022-07-18T13:18:13;7.75;;;2.67;;
68803;SDS011;55787;52.678;13.314;2022-07-18T13:20:43;7.55;;;2.50;;
68803;SDS011;55787;52.678;13.314;2022-07-18T13:23:09;7.30;;;2.55;;
68803;SDS011;55787;52.678;13.314;2022-07-18T13:25:37;7.72;;;2.60;;
68803;SDS011;55787;52.678;13.314;2022-07-18T13:28:04;6.78;;;2.53;;
68803;SDS011;55787;52.678;13.314;2022-07-18T13:30:30;6.82;;;2.75;;
68803;SDS011;55787;52.678;13.314;2022-07-18T13:32:57;8.50;;;2.50;;
68803;SDS011;55787;52.678;13.314;2022-07-18T13:35:24;7.32;;;2.53;;
68803;SDS011;55787;52.678;13.314;2022-07-18T13:37:50;7.72;;;2.60;;
68803;SDS011;55787;52.678;13.314;2022-07-18T13:40:17;6.93;;;2.40;;
68803;SDS011;55787;52.678;13.314;2022-07-18T13:42:48;6.95;;;2.30;;
68803;SDS011;55787;52.678;13.314;2022-07-18T13:45:14;7.97;;;2.53;;
68803;SDS011;55787;52.678;13.314;2022-07-18T13:47:42;7.28;;;2.40;;
68803;SDS011;55787;52.678;13.314;2022-07-18T13:50:09;6.77;;;2.30;;
68803;SDS011;55787;52.678;13.314;2022-07-18T13:52:37;8.80;;;3.08;;
68803;SDS011;55787;52.678;13.314;2022-07-18T13:55:04;8.70;;;2.70;;
68803;SDS011;55787;52.678;13.314;2022-07-18T13:57:31;7.20;;;2.70;;
68803;SDS011;55787;52.678;13.314;2022-07-18T13:59:58;7.93;;;2.70;;
68803;SDS011;55787;52.678;13.314;2022-07-18T14:02:24;8.43;;;2.63;;
68803;SDS011;55787;52.678;13.314;2022-07-18T14:04:51;9.23;;;3.03;;
68803;SDS011;55787;52.678;13.314;2022-07-18T14:07:37;8.68;;;2.92;;
68803;SDS011;55787;52.678;13.314;2022-07-18T14:10:04;8.35;;;2.90;;
68803;SDS011;55787;52.678;13.314;2022-07-18T14:12:31;8.90;;;2.72;;
68803;SDS011;55787;52.678;13.314;2022-07-18T14:14:58;8.45;;;2.80;;
68803;SDS011;55787;52.678;13.314;2022-07-18T14:17:24;8.43;;;2.75;;
68803;SDS011;55787;52.678;13.314;2022-07-18T14:19:51;7.68;;;2.70;;
68803;SDS011;55787;52.678;13.314;2022-07-18T14:22:17;9.57;;;2.83;;
68803;SDS011;55787;52.678;13.314;2022-07-18T14:24:44;7.85;;;2.60;;
68803;SDS011;55787;52.678;13.314;2022-07-18T14:27:10;9.53;;;2.80;;
68803;SDS011;55787;52.678;13.314;2022-07-18T14:29:37;8.05;;;2.50;;
68803;SDS011;55787;52.678;13.314;2022-07-18T14:32:03;8.68;;;2.30;;
68803;SDS011;55787;52.678;13.314;2022-07-18T14:34:30;9.13;;;2.40;;
68803;SDS011;55787;52.678;13.314;2022-07-18T14:36:57;7.57;;;2.22;;
68803;SDS011;55787;52.678;13.314;2022-07-18T14:39:23;7.43;;;2.50;;
68803;SDS011;55787;52.678;13.314;2022-07-18T14:41:50;7.07;;;2.17;;
68803;SDS011;55787;52.678;13.314;2022-07-18T14:44:17;8.68;;;2.10;;
68803;SDS011;55787;52.678;13.314;2022-07-18T14:46:43;7.35;;;2.47;;
68803;SDS011;55787;52.678;13.314;2022-07-18T14:49:10;6.65;;;2.40;;
68803;SDS011;55787;52.678;13.314;2022-07-18T14:51:36;8.37;;;2.60;;
68803;SDS011;55787;52.678;13.314;2022-07-18T14:54:03;7.75;;;2.47;;
68803;SDS011;55787;52.678;13.314;2022-07-18T14:56:30;7.68;;;2.55;;
68803;SDS011;55787;52.678;13.314;2022-07-18T14:58:56;7.32;;;2.25;;
68803;SDS011;55787;52.678;13.314;2022-07-18T15:01:23;7.60;;;1.88;;
68803;SDS011;55787;52.678;13.314;2022-07-18T15:03:50;8.77;;;2.40;;
68803;SDS011;55787;52.678;13.314;2022-07-18T15:06:24;8.10;;;2.05;;
68803;SDS011;55787;52.678;13.314;2022-07-18T15:08:51;7.38;;;2.10;;
68803;SDS011;55787;52.678;13.314;2022-07-18T15:11:18;7.57;;;1.98;;
68803;SDS011;55787;52.678;13.314;2022-07-18T15:13:47;7.20;;;2.17;;
68803;SDS011;55787;52.678;13.314;2022-07-18T15:16:13;11.60;;;2.33;;
68803;SDS011;55787;52.678;13.314;2022-07-18T15:18:40;7.55;;;2.10;;
68803;SDS011;55787;52.678;13.314;2022-07-18T15:21:06;9.32;;;2.13;;
68803;SDS011;55787;52.678;13.314;2022-07-18T15:23:33;7.90;;;2.10;;
68803;SDS011;55787;52.678;13.314;2022-07-18T15:26:00;9.88;;;2.60;;
68803;SDS011;55787;52.678;13.314;2022-07-18T15:28:26;8.32;;;2.22;;
68803;SDS011;55787;52.678;13.314;2022-07-18T15:30:53;7.15;;;2.40;;
68803;SDS011;55787;52.678;13.314;2022-07-18T15:33:19;7.18;;;2.38;;
68803;SDS011;55787;52.678;13.314;2022-07-18T15:35:47;7.15;;;2.33;;
68803;SDS011;55787;52.678;13.314;2022-07-18T15:38:13;6.78;;;2.00;;
68803;SDS011;55787;52.678;13.314;2022-07-18T15:40:40;6.60;;;2.30;;
68803;SDS011;55787;52.678;13.314;2022-07-18T15:43:06;7.60;;;2.17;;
68803;SDS011;55787;52.678;13.314;2022-07-18T15:45:33;6.93;;;2.20;;
68803;SDS011;55787;52.678;13.314;2022-07-18T15:47:59;6.53;;;2.20;;
68803;SDS011;55787;52.678;13.314;2022-07-18T15:50:26;6.57;;;2.10;;